createdAt,value
2023-02-03T00:00:57.210Z,97131.13
2023-02-03T00:03:24.778Z,97121.63
2023-02-03T00:05:52.367Z,97124.47
2023-02-03T00:08:21.559Z,97127.22
2023-02-03T00:10:49.241Z,97122.31
2023-02-03T00:13:16.794Z,97123.72
2023-02-03T00:15:44.282Z,97120.69
2023-02-03T00:18:11.729Z,97136.69
2023-02-03T00:20:39.178Z,97130.72
2023-02-03T00:23:07.308Z,97126.28
2023-02-03T00:25:36.448Z,97130.91
2023-02-03T00:28:04.600Z,97137.66
2023-02-03T00:30:32.428Z,97124.38
2023-02-03T00:32:59.890Z,97123.59
2023-02-03T00:35:27.477Z,97120.81
2023-02-03T00:37:56.507Z,97133.81
2023-02-03T00:40:26.696Z,97120.16
2023-02-03T00:42:55.859Z,97122.63
2023-02-03T00:45:24.475Z,97109.16
2023-02-03T00:47:52.100Z,97121.59
2023-02-03T00:50:19.603Z,97123.19
2023-02-03T00:52:47.051Z,97122.44
2023-02-03T00:55:14.609Z,97122.63
2023-02-03T00:57:42.076Z,97118.22
2023-02-03T01:00:12.625Z,97121.81
2023-02-03T01:02:40.109Z,97123.22
2023-02-03T01:05:08.677Z,97123.66
2023-02-03T01:07:36.166Z,97123.59
2023-02-03T01:10:04.126Z,97121.34
2023-02-03T01:12:32.068Z,97124.50
2023-02-03T01:14:59.636Z,97126.22
2023-02-03T01:17:28.515Z,97120.16
2023-02-03T01:19:55.956Z,97131.06
2023-02-03T01:22:23.476Z,97126.84
2023-02-03T01:24:50.923Z,97120.84
2023-02-03T01:27:18.387Z,97121.50
2023-02-03T01:29:45.812Z,97116.56
2023-02-03T01:32:13.264Z,97116.06
2023-02-03T01:34:42.034Z,97121.09
2023-02-03T01:37:09.481Z,97110.66
2023-02-03T01:39:37.165Z,97123.66
2023-02-03T01:42:05.851Z,97119.84
2023-02-03T01:44:44.946Z,97113.13
2023-02-03T01:47:18.421Z,97113.00
2023-02-03T01:49:50.853Z,97108.22
2023-02-03T01:52:18.848Z,97107.00
2023-02-03T01:54:51.543Z,97105.28
2023-02-03T01:57:23.853Z,97101.25
2023-02-03T01:59:54.305Z,97102.31
2023-02-03T02:02:21.925Z,97096.69
2023-02-03T02:04:57.570Z,97102.34
2023-02-03T02:07:25.466Z,97100.50
2023-02-03T02:09:53.197Z,97097.81
2023-02-03T02:12:20.675Z,97087.66
2023-02-03T02:14:48.871Z,97085.69
2023-02-03T02:17:34.068Z,97076.44
2023-02-03T02:20:34.046Z,97067.22
2023-02-03T02:23:40.180Z,97061.53
2023-02-03T02:26:32.465Z,97048.31
2023-02-03T02:29:17.251Z,97043.97
2023-02-03T02:32:06.580Z,97043.69
2023-02-03T02:34:47.828Z,97047.66
2023-02-03T02:37:25.274Z,97035.00
2023-02-03T02:39:59.284Z,97018.06
2023-02-03T02:42:35.542Z,97031.50
2023-02-03T02:45:11.340Z,97031.09
2023-02-03T02:47:40.495Z,97028.25
2023-02-03T02:50:13.673Z,97036.16
2023-02-03T02:52:45.308Z,97035.31
2023-02-03T02:55:24.446Z,97046.06
2023-02-03T02:57:54.239Z,97035.94
2023-02-03T03:00:22.625Z,97028.41
2023-02-03T03:02:51.384Z,97037.09
2023-02-03T03:05:19.712Z,97047.53
2023-02-03T03:07:52.527Z,97047.53
2023-02-03T03:10:24.889Z,97040.16
2023-02-03T03:12:56.574Z,97045.94
2023-02-03T03:15:27.910Z,97057.47
2023-02-03T03:18:01.597Z,97035.22
2023-02-03T03:20:32.748Z,97023.66
2023-02-03T03:23:04.751Z,97019.88
2023-02-03T03:25:39.773Z,97012.88
2023-02-03T03:28:13.352Z,97018.13
2023-02-03T03:30:41.047Z,97039.22
2023-02-03T03:33:10.871Z,97047.31
2023-02-03T03:35:43.602Z,97047.75
2023-02-03T03:38:20.484Z,97046.69
2023-02-03T03:40:54.093Z,97054.56
2023-02-03T03:43:24.707Z,97045.00
2023-02-03T03:45:56.773Z,97056.56
2023-02-03T03:48:30.817Z,97062.34
2023-02-03T03:51:03.495Z,97050.16
2023-02-03T03:53:34.853Z,97029.47
2023-02-03T03:56:04.440Z,97049.03
2023-02-03T03:58:33.568Z,97025.25
2023-02-03T04:01:03.764Z,97025.69
2023-02-03T04:03:38.449Z,97036.50
2023-02-03T04:06:06.943Z,97067.72
2023-02-03T04:08:34.509Z,97086.19
2023-02-03T04:11:01.980Z,97084.31
2023-02-03T04:13:29.420Z,97073.69
2023-02-03T04:15:56.909Z,97071.94
2023-02-03T04:18:24.380Z,97084.09
2023-02-03T04:20:53.184Z,97091.03
2023-02-03T04:23:20.637Z,97072.44
2023-02-03T04:25:48.132Z,97062.88
2023-02-03T04:28:15.664Z,97050.91
2023-02-03T04:30:43.200Z,97049.63
2023-02-03T04:33:10.654Z,97062.22
2023-02-03T04:35:38.124Z,97062.25
2023-02-03T04:38:06.991Z,97061.41
2023-02-03T04:40:35.205Z,97055.09
2023-02-03T04:43:07.143Z,97065.06
2023-02-03T04:45:34.730Z,97050.38
2023-02-03T04:48:03.947Z,97029.47
2023-02-03T04:50:31.568Z,97031.06
2023-02-03T04:53:00.443Z,97030.41
2023-02-03T04:55:29.418Z,97025.56
2023-02-03T04:57:57.090Z,97023.56
2023-02-03T05:00:24.951Z,97012.88
2023-02-03T05:02:52.579Z,97011.16
2023-02-03T05:05:20.270Z,97025.69
2023-02-03T05:07:47.807Z,97022.53
2023-02-03T05:10:15.303Z,97011.09
2023-02-03T05:12:44.096Z,97018.97
2023-02-03T05:15:11.784Z,97025.25
2023-02-03T05:17:40.202Z,97010.75
2023-02-03T05:20:08.708Z,97025.88
2023-02-03T05:22:36.271Z,97018.75
2023-02-03T05:25:04.692Z,97032.53
2023-02-03T05:27:32.218Z,97048.16
2023-02-03T05:30:01.076Z,97031.25
2023-02-03T05:32:28.550Z,97018.13
2023-02-03T05:34:56.001Z,97016.63
2023-02-03T05:37:23.624Z,97031.06
2023-02-03T05:39:51.104Z,97025.03
2023-02-03T05:42:17.637Z,97016.97
2023-02-03T05:44:45.098Z,97028.75
2023-02-03T05:47:13.889Z,97043.34
2023-02-03T05:49:41.369Z,97045.53
2023-02-03T05:52:08.837Z,97038.16
2023-02-03T05:54:36.292Z,97031.97
2023-02-03T05:57:03.840Z,97032.19
2023-02-03T05:59:31.287Z,97030.81
2023-02-03T06:01:58.760Z,97031.25
2023-02-03T06:04:27.590Z,97038.50
2023-02-03T06:06:55.089Z,97044.81
2023-02-03T06:09:22.565Z,97038.94
2023-02-03T06:11:50.031Z,97054.69
2023-02-03T06:14:17.496Z,97050.56
2023-02-03T06:16:45.217Z,97047.00
2023-02-03T06:19:14.589Z,97034.91
2023-02-03T06:21:44.829Z,97045.31
2023-02-03T06:24:12.470Z,97039.88
2023-02-03T06:26:39.934Z,97027.16
2023-02-03T06:29:07.389Z,97020.22
2023-02-03T06:31:34.933Z,96986.41
2023-02-03T06:34:02.616Z,96985.75
2023-02-03T06:36:30.357Z,96989.09
2023-02-03T06:38:59.323Z,96970.22
2023-02-03T06:41:30.364Z,96972.44
2023-02-03T06:43:57.841Z,96974.63
2023-02-03T06:46:28.118Z,96972.53
2023-02-03T06:48:55.551Z,96963.50
2023-02-03T06:51:24.732Z,96962.97
2023-02-03T06:53:52.362Z,96962.84
2023-02-03T06:56:21.168Z,96968.13
2023-02-03T06:58:48.625Z,96962.78
2023-02-03T07:01:16.174Z,96956.75
2023-02-03T07:03:43.790Z,96948.13
2023-02-03T07:06:11.276Z,96942.69
2023-02-03T07:08:38.716Z,96945.22
2023-02-03T07:11:06.628Z,96952.59
2023-02-03T07:13:35.458Z,96935.97
2023-02-03T07:16:03.015Z,96983.00
2023-02-03T07:18:46.476Z,96971.88
2023-02-03T07:21:16.116Z,96976.41
2023-02-03T07:23:43.610Z,96982.19
2023-02-03T07:26:11.651Z,96980.81
2023-02-03T07:28:40.912Z,96977.75
2023-02-03T07:31:10.586Z,96971.47
2023-02-03T07:33:39.070Z,96981.47
2023-02-03T07:36:08.071Z,96977.75
2023-02-03T07:38:35.522Z,96975.63
2023-02-03T07:41:02.964Z,96981.50
2023-02-03T07:43:30.436Z,96984.47
2023-02-03T07:45:59.306Z,96980.69
2023-02-03T07:48:26.770Z,96983.09
2023-02-03T07:50:54.394Z,96975.13
2023-02-03T07:53:21.874Z,96972.25
2023-02-03T07:55:49.343Z,96989.03
2023-02-03T07:58:17.139Z,96980.50
2023-02-03T08:00:44.611Z,96973.00
2023-02-03T08:03:13.429Z,96955.50
2023-02-03T08:05:40.879Z,96978.41
2023-02-03T08:08:08.363Z,97002.97
2023-02-03T08:10:35.913Z,97009.94
2023-02-03T08:13:03.378Z,96974.81
2023-02-03T08:15:30.831Z,96975.03
2023-02-03T08:17:58.297Z,96972.47
2023-02-03T08:20:27.495Z,96974.72
2023-02-03T08:22:55.127Z,96966.59
2023-02-03T08:25:22.863Z,96981.69
2023-02-03T08:27:50.401Z,96967.09
2023-02-03T08:30:17.919Z,96965.50
2023-02-03T08:32:45.434Z,96953.50
2023-02-03T08:35:12.925Z,96948.78
2023-02-03T08:37:41.984Z,96933.88
2023-02-03T08:40:10.407Z,96967.19
2023-02-03T08:42:37.921Z,96959.22
2023-02-03T08:45:06.879Z,96958.06
2023-02-03T08:47:36.734Z,96941.28
2023-02-03T08:50:05.023Z,96957.00
2023-02-03T08:52:32.683Z,96962.34
2023-02-03T08:55:01.521Z,96948.03
2023-02-03T08:57:29.064Z,96959.56
2023-02-03T08:59:56.524Z,96969.13
2023-02-03T09:02:23.984Z,96963.56
2023-02-03T09:04:51.979Z,96949.59
2023-02-03T09:07:19.480Z,96957.44
2023-02-03T09:09:47.038Z,96946.72
2023-02-03T09:12:16.105Z,96950.63
2023-02-03T09:14:43.853Z,96936.00
2023-02-03T09:17:11.776Z,96942.25
2023-02-03T09:19:39.303Z,96949.09
2023-02-03T09:22:07.160Z,96939.44
2023-02-03T09:24:35.143Z,96949.53
2023-02-03T09:27:03.642Z,96943.03
2023-02-03T09:29:32.712Z,96935.63
2023-02-03T09:32:01.044Z,96942.63
2023-02-03T09:34:28.553Z,96932.72
2023-02-03T09:36:55.996Z,96944.28
2023-02-03T09:39:23.443Z,96952.16
2023-02-03T09:42:28.966Z,96961.44
2023-02-03T09:45:08.944Z,96965.50
2023-02-03T09:47:40.496Z,96952.25
2023-02-03T09:50:15.370Z,96950.09
2023-02-03T09:52:44.228Z,96948.41
2023-02-03T09:55:25.226Z,96954.13
2023-02-03T09:57:57.957Z,96952.41
2023-02-03T10:00:30.887Z,96949.66
2023-02-03T10:03:04.901Z,96947.47
2023-02-03T10:05:48.471Z,96957.81
2023-02-03T10:08:26.928Z,96943.09
2023-02-03T10:11:10.391Z,96951.22
2023-02-03T10:13:48.084Z,96939.41
2023-02-03T10:16:30.910Z,96941.41
2023-02-03T10:19:04.369Z,96931.59
2023-02-03T10:21:38.170Z,96938.84
2023-02-03T10:24:11.292Z,96938.84
2023-02-03T10:26:41.144Z,96940.09
2023-02-03T10:29:19.381Z,96948.69
2023-02-03T10:31:49.221Z,96957.94
2023-02-03T10:34:19.690Z,96949.75
2023-02-03T10:36:55.649Z,96953.56
2023-02-03T10:39:32.011Z,96946.41
2023-02-03T10:42:00.287Z,96928.56
2023-02-03T10:44:36.468Z,96912.78
2023-02-03T10:47:18.783Z,96913.66
2023-02-03T10:49:46.444Z,96918.63
2023-02-03T10:52:27.724Z,96902.25
2023-02-03T10:54:55.950Z,96910.13
2023-02-03T10:57:23.475Z,96916.59
2023-02-03T10:59:50.941Z,96905.09
2023-02-03T11:02:25.776Z,96903.44
2023-02-03T11:05:12.691Z,96895.50
2023-02-03T11:07:40.146Z,96894.81
2023-02-03T11:10:30.741Z,96890.63
2023-02-03T11:13:18.247Z,96878.31
2023-02-03T11:15:53.064Z,96866.84
2023-02-03T11:18:36.474Z,96846.19
2023-02-03T11:21:09.697Z,96865.22
2023-02-03T11:23:38.289Z,96866.69
2023-02-03T11:26:15.328Z,96864.50
2023-02-03T11:28:45.990Z,96848.19
2023-02-03T11:31:19.619Z,96849.66
2023-02-03T11:33:56.889Z,96842.59
2023-02-03T11:36:28.263Z,96839.84
2023-02-03T11:39:11.020Z,96826.91
2023-02-03T11:41:39.955Z,96828.66
2023-02-03T11:44:17.417Z,96810.53
2023-02-03T11:46:47.297Z,96795.81
2023-02-03T11:49:40.291Z,96800.56
2023-02-03T11:52:33.689Z,96796.13
2023-02-03T11:55:08.974Z,96807.97
2023-02-03T11:57:45.645Z,96795.75
2023-02-03T12:00:27.174Z,96754.13
2023-02-03T12:03:30.792Z,96788.38
2023-02-03T12:06:09.565Z,96798.81
2023-02-03T12:08:50.912Z,96784.66
2023-02-03T12:11:31.708Z,96776.06
2023-02-03T12:14:23.460Z,96759.31
2023-02-03T12:17:07.292Z,96776.00
2023-02-03T12:19:47.041Z,96779.16
2023-02-03T12:22:24.361Z,96761.78
2023-02-03T12:25:03.932Z,96778.28
2023-02-03T12:27:48.315Z,96776.00
2023-02-03T12:30:23.036Z,96789.19
2023-02-03T12:32:54.872Z,96788.59
2023-02-03T12:35:27.633Z,96791.47
2023-02-03T12:38:02.365Z,96782.03
2023-02-03T12:40:36.723Z,96785.16
2023-02-03T12:43:18.971Z,96786.09
2023-02-03T12:45:54.089Z,96784.44
2023-02-03T12:48:25.421Z,96783.38
2023-02-03T12:50:57.091Z,96739.59
2023-02-03T12:53:30.457Z,96740.31
2023-02-03T12:56:02.871Z,96720.47
2023-02-03T12:58:34.856Z,96702.53
2023-02-03T13:01:08.263Z,96686.97
2023-02-03T13:03:42.069Z,96692.94
2023-02-03T13:06:15.943Z,96689.47
2023-02-03T13:08:51.476Z,96675.50
2023-02-03T13:11:24.211Z,96666.00
2023-02-03T13:13:56.750Z,96663.75
2023-02-03T13:16:29.859Z,96657.31
2023-02-03T13:19:01.926Z,96652.75
2023-02-03T13:21:29.439Z,96646.88
2023-02-03T13:23:58.745Z,96652.03
2023-02-03T13:26:48.576Z,96653.22
2023-02-03T13:29:31.509Z,96623.31
2023-02-03T13:32:11.784Z,96629.06
2023-02-03T13:34:59.881Z,96646.78
2023-02-03T13:37:42.551Z,96639.09
2023-02-03T13:40:38.529Z,96611.81
2023-02-03T13:43:12.701Z,96594.97
2023-02-03T13:45:44.033Z,96621.75
2023-02-03T13:48:17.321Z,96612.09
2023-02-03T13:50:46.308Z,96619.50
2023-02-03T13:53:20.505Z,96638.16
2023-02-03T13:55:57.809Z,96615.19
2023-02-03T13:58:28.778Z,96595.94
2023-02-03T14:01:30.363Z,96563.66
2023-02-03T14:03:58.709Z,96554.41
2023-02-03T14:07:01.032Z,96555.91
2023-02-03T14:09:39.937Z,96564.78
2023-02-03T14:12:19.586Z,96568.13
2023-02-03T14:15:04.869Z,96551.38
2023-02-03T14:17:55.481Z,96577.22
2023-02-03T14:20:48.813Z,96581.16
2023-02-03T14:23:22.681Z,96582.94
2023-02-03T14:25:53.302Z,96605.91
2023-02-03T14:28:25.891Z,96594.09
2023-02-03T14:31:10.432Z,96603.97
2023-02-03T14:33:52.329Z,96578.41
2023-02-03T14:36:39.660Z,96599.81
2023-02-03T14:39:37.003Z,96608.88
2023-02-03T14:42:13.299Z,96640.09
2023-02-03T14:44:53.582Z,96625.28
2023-02-03T14:47:36.357Z,96614.50
2023-02-03T14:50:18.079Z,96622.16
2023-02-03T14:53:01.814Z,96625.03
2023-02-03T14:55:40.377Z,96627.78
2023-02-03T14:58:21.189Z,96661.41
2023-02-03T15:00:52.514Z,96626.34
2023-02-03T15:03:25.292Z,96640.00
2023-02-03T15:05:58.618Z,96646.31
2023-02-03T15:08:47.179Z,96643.34
2023-02-03T15:11:29.537Z,96656.50
2023-02-03T15:13:58.941Z,96662.97
2023-02-03T15:16:27.864Z,96654.34
2023-02-03T15:18:59.126Z,96674.66
2023-02-03T15:21:27.148Z,96656.59
2023-02-03T15:23:55.335Z,96660.91
2023-02-03T15:26:24.811Z,96681.47
2023-02-03T15:28:56.965Z,96673.22
2023-02-03T15:31:33.827Z,96671.44
2023-02-03T15:34:07.937Z,96678.63
2023-02-03T15:36:43.173Z,96642.84
2023-02-03T15:39:20.688Z,96661.72
2023-02-03T15:41:51.128Z,96657.09
2023-02-03T15:44:28.989Z,96652.31
2023-02-03T15:46:58.785Z,96649.06
2023-02-03T15:49:30.634Z,96657.44
2023-02-03T15:52:01.253Z,96674.28
2023-02-03T15:54:40.357Z,96650.41
2023-02-03T15:57:11.560Z,96642.97
2023-02-03T15:59:42.166Z,96630.78
2023-02-03T16:02:18.330Z,96662.34
2023-02-03T16:04:46.346Z,96628.38
2023-02-03T16:07:19.098Z,96650.75
2023-02-03T16:09:46.550Z,96617.25
2023-02-03T16:12:19.583Z,96656.97
2023-02-03T16:14:47.409Z,96667.56
2023-02-03T16:17:29.071Z,96645.81
2023-02-03T16:20:22.673Z,96635.56
2023-02-03T16:23:03.637Z,96656.81
2023-02-03T16:25:33.602Z,96643.94
2023-02-03T16:28:20.365Z,96616.78
2023-02-03T16:31:14.033Z,96642.00
2023-02-03T16:34:03.407Z,96649.91
2023-02-03T16:36:48.491Z,96624.66
2023-02-03T16:39:33.820Z,96604.19
2023-02-03T16:42:19.843Z,96587.00
2023-02-03T16:45:05.213Z,96588.69
2023-02-03T16:47:51.257Z,96596.22
2023-02-03T16:50:40.682Z,96590.94
2023-02-03T16:53:13.472Z,96595.09
2023-02-03T16:55:41.051Z,96599.41
2023-02-03T16:58:09.568Z,96582.66
2023-02-03T17:00:37.043Z,96588.25
2023-02-03T17:03:05.240Z,96597.38
2023-02-03T17:05:37.865Z,96612.31
2023-02-03T17:08:05.622Z,96615.91
2023-02-03T17:10:34.456Z,96611.38
2023-02-03T17:13:02.043Z,96611.72
2023-02-03T17:15:29.807Z,96637.19
2023-02-03T17:17:59.306Z,96619.34
2023-02-03T17:20:27.065Z,96625.22
2023-02-03T17:22:56.013Z,96616.34
2023-02-03T17:25:23.811Z,96633.00
2023-02-03T17:27:51.501Z,96636.00
2023-02-03T17:30:19.506Z,96644.84
2023-02-03T17:32:47.127Z,96659.69
2023-02-03T17:35:14.688Z,96654.66
2023-02-03T17:37:42.287Z,96652.13
2023-02-03T17:54:05.957Z,96649.09
2023-02-03T17:56:36.395Z,96653.78
2023-02-03T17:59:05.689Z,96669.00
2023-02-03T18:01:33.693Z,96655.13
2023-02-03T18:04:03.610Z,96642.19
2023-02-03T18:06:35.012Z,96663.03
2023-02-03T18:09:03.127Z,96619.91
2023-02-03T18:11:32.310Z,96641.00
2023-02-03T18:14:02.083Z,96648.16
2023-02-03T18:16:33.074Z,96648.88
2023-02-03T18:19:02.712Z,96654.63
2023-02-03T18:21:32.185Z,96665.16
2023-02-03T18:24:01.996Z,96668.50
2023-02-03T18:26:32.515Z,96641.09
2023-02-03T18:29:02.023Z,96661.66
2023-02-03T18:31:29.777Z,96669.28
2023-02-03T18:33:57.297Z,96665.94
2023-02-03T18:36:24.913Z,96667.03
2023-02-03T18:38:52.397Z,96672.06
2023-02-03T18:41:21.610Z,96698.16
2023-02-03T18:43:49.556Z,96682.81
2023-02-03T18:46:20.583Z,96677.53
2023-02-03T18:48:49.074Z,96704.47
2023-02-03T18:51:23.503Z,96691.41
2023-02-03T18:53:51.270Z,96707.00
2023-02-03T18:56:20.729Z,96684.94
2023-02-03T18:58:48.615Z,96718.94
2023-02-03T19:01:25.766Z,96715.84
2023-02-03T19:03:54.599Z,96712.25
2023-02-03T19:06:22.235Z,96715.84
2023-02-03T19:08:49.782Z,96725.88
2023-02-03T19:11:18.371Z,96732.72
2023-02-03T19:13:46.049Z,96730.22
2023-02-03T19:16:16.694Z,96724.72
2023-02-03T19:18:46.089Z,96733.56
2023-02-03T19:21:14.512Z,96730.22
2023-02-03T19:23:42.837Z,96728.44
2023-02-03T19:26:11.980Z,96721.25
2023-02-03T19:28:40.096Z,96722.09
2023-02-03T19:31:09.923Z,96743.25
2023-02-03T19:33:37.988Z,96735.25
2023-02-03T19:36:08.336Z,96721.72
2023-02-03T19:38:36.853Z,96743.16
2023-02-03T19:41:04.552Z,96743.25
2023-02-03T19:43:32.348Z,96739.81
2023-02-03T19:46:00.626Z,96753.00
2023-02-03T19:48:28.195Z,96739.22
2023-02-03T19:50:55.743Z,96753.47
2023-02-03T19:53:25.161Z,96759.81
2023-02-03T19:55:53.047Z,96755.41
2023-02-03T19:58:20.893Z,96755.41
2023-02-03T20:00:48.390Z,96763.63
2023-02-03T20:03:17.643Z,96777.63
2023-02-03T20:05:45.215Z,96784.84
2023-02-03T20:08:14.730Z,96791.31
2023-02-03T20:10:45.258Z,96784.25
2023-02-03T20:13:12.993Z,96770.22
2023-02-03T20:15:40.470Z,96750.56
2023-02-03T20:18:08.208Z,96752.94
2023-02-03T20:20:36.715Z,96764.81
2023-02-03T20:23:04.280Z,96780.00
2023-02-03T20:25:31.907Z,96756.06
2023-02-03T20:28:02.434Z,96776.41
2023-02-03T20:30:30.386Z,96773.41
2023-02-03T20:32:58.575Z,96775.44
2023-02-03T20:35:27.252Z,96770.91
2023-02-03T20:37:55.082Z,96790.06
2023-02-03T20:40:24.484Z,96795.44
2023-02-03T20:42:53.028Z,96779.28
2023-02-03T20:45:23.322Z,96775.13
2023-02-03T20:47:51.031Z,96768.03
2023-02-03T20:50:23.617Z,96775.84
2023-02-03T20:52:53.620Z,96785.53
2023-02-03T20:55:23.164Z,96793.19
2023-02-03T20:57:54.162Z,96796.06
2023-02-03T21:00:25.660Z,96772.34
2023-02-03T21:03:11.452Z,96782.63
2023-02-03T21:05:40.719Z,96789.97
2023-02-03T21:08:11.993Z,96789.13
2023-02-03T21:10:40.782Z,96759.19
2023-02-03T21:13:20.993Z,96777.41
2023-02-03T21:15:50.895Z,96779.56
2023-02-03T21:18:29.209Z,96764.09
2023-02-03T21:20:56.970Z,96782.69
2023-02-03T21:23:28.871Z,96790.69
2023-02-03T21:25:56.326Z,96764.47
2023-02-03T21:28:26.547Z,96789.88
2023-02-03T21:30:55.456Z,96773.34
2023-02-03T21:33:33.516Z,96772.16
2023-02-03T21:36:00.981Z,96768.31
2023-02-03T21:38:31.377Z,96778.72
2023-02-03T21:40:59.486Z,96788.91
2023-02-03T21:43:26.965Z,96780.63
2023-02-03T21:45:56.133Z,96774.28
2023-02-03T21:48:27.772Z,96766.53
2023-02-03T21:50:56.810Z,96795.63
2023-02-03T21:53:27.563Z,96808.91
2023-02-03T21:55:55.233Z,96812.16
2023-02-03T21:58:25.896Z,96819.47
2023-02-03T22:00:56.815Z,96814.06
2023-02-03T22:03:27.820Z,96835.13
2023-02-03T22:06:05.351Z,96830.59
2023-02-03T22:08:37.220Z,96823.88
2023-02-03T22:11:04.981Z,96832.00
2023-02-03T22:13:32.910Z,96817.19
2023-02-03T22:16:02.051Z,96832.63
2023-02-03T22:18:29.503Z,96844.91
2023-02-03T22:20:57.083Z,96859.28
2023-02-03T22:23:24.600Z,96865.63
2023-02-03T22:25:52.262Z,96851.03
2023-02-03T22:28:19.769Z,96856.31
2023-02-03T22:30:47.939Z,96866.25
2023-02-03T22:33:16.920Z,96852.84
2023-02-03T22:35:44.418Z,96846.75
2023-02-03T22:38:12.055Z,96862.16
2023-02-03T22:40:39.525Z,96875.22
2023-02-03T22:43:07.161Z,96877.28
2023-02-03T22:45:34.682Z,96881.09
2023-02-03T22:48:02.171Z,96876.53
2023-02-03T22:50:35.711Z,96856.31
2023-02-03T22:53:04.583Z,96870.56
2023-02-03T22:55:32.414Z,96871.63
2023-02-03T22:57:59.927Z,96882.06
2023-02-03T23:00:28.495Z,96888.03
2023-02-03T23:02:56.232Z,96891.25
2023-02-03T23:05:23.976Z,96898.81
2023-02-03T23:07:52.786Z,96890.78
2023-02-03T23:10:22.611Z,96905.63
2023-02-03T23:12:50.332Z,96904.19
2023-02-03T23:15:18.894Z,96919.00
2023-02-03T23:17:46.592Z,96932.69
2023-02-03T23:20:16.398Z,96919.28
2023-02-03T23:22:43.951Z,96916.59
2023-02-03T23:25:13.183Z,96913.03
2023-02-03T23:27:40.715Z,96905.69
2023-02-03T23:30:08.923Z,96913.72
2023-02-03T23:32:36.404Z,96910.94
2023-02-03T23:35:21.640Z,96910.63
2023-02-03T23:37:49.140Z,96900.69
2023-02-03T23:40:19.266Z,96911.88
2023-02-03T23:42:46.934Z,96901.00
2023-02-03T23:45:14.542Z,96907.00
2023-02-03T23:47:43.343Z,96910.59
2023-02-03T23:50:13.071Z,96911.66
2023-02-03T23:52:40.574Z,96914.16
2023-02-03T23:55:10.424Z,96906.72
2023-02-03T23:57:40.178Z,96905.81
